Time;durP1;ratioP1;P1;durP2;ratioP2;P2;SDS_P1;SDS_P2;PMS_P1;PMS_P2;Temp;Humidity;BMP_temperature;BMP_pressure;BME280_temperature;BME280_humidity;BME280_pressure;Samples;Min_cycle;Max_cycle;Signal;HPM_P1;HPM_P2
2022/06/17 00:00:21;;;;;;;21.15;15.15;;;13.80;99.90;;;;;;5054625;28;20033;-73
2022/06/17 00:02:47;;;;;;;19.73;15.63;;;13.70;99.90;;;;;;5036763;28;20021;-74
2022/06/17 00:05:13;;;;;;;17.40;14.35;;;13.70;99.90;;;;;;5054159;28;20044;-75
2022/06/17 00:07:41;;;;;;;23.38;16.48;;;13.60;99.90;;;;;;5054604;28;20390;-75
2022/06/17 00:10:20;;;;;;;18.70;13.98;;;13.60;99.90;;;;;;5054667;28;20028;-76
2022/06/17 00:12:46;;;;;;;25.63;19.15;;;13.60;99.90;;;;;;5036589;28;20070;-74
2022/06/17 00:15:13;;;;;;;22.05;17.05;;;13.60;99.90;;;;;;5036442;28;20032;-75
2022/06/17 00:17:40;;;;;;;19.63;15.18;;;13.50;99.90;;;;;;5038965;28;20062;-75
2022/06/17 00:20:08;;;;;;;15.40;13.00;;;13.50;99.90;;;;;;5074315;28;20025;-73
2022/06/17 00:22:35;;;;;;;16.30;14.48;;;13.50;99.90;;;;;;5060935;28;20108;-75
2022/06/17 00:25:01;;;;;;;19.20;14.32;;;13.40;99.90;;;;;;5053971;28;20028;-74
2022/06/17 00:27:27;;;;;;;22.50;15.18;;;13.30;99.90;;;;;;5036368;28;20109;-74
2022/06/17 00:29:52;;;;;;;20.40;16.33;;;13.30;99.90;;;;;;5054073;28;20439;-73
2022/06/17 00:32:18;;;;;;;21.92;16.13;;;13.30;99.90;;;;;;5036200;28;20017;-76
2022/06/17 00:34:44;;;;;;;20.63;14.55;;;13.30;99.90;;;;;;5053978;28;20025;-73
2022/06/17 00:37:14;;;;;;;18.75;14.55;;;13.20;99.90;;;;;;5054084;28;20475;-75
2022/06/17 00:39:40;;;;;;;27.88;16.08;;;13.20;99.90;;;;;;5053929;28;20016;-73
2022/06/17 00:42:10;;;;;;;21.65;15.75;;;13.20;99.90;;;;;;5054008;28;20482;-74
2022/06/17 00:44:59;;;;;;;31.50;15.35;;;13.10;99.90;;;;;;5053946;28;20047;-74
2022/06/17 00:47:56;;;;;;;19.25;14.48;;;13.00;99.90;;;;;;5053941;28;20044;-75
2022/06/17 00:50:42;;;;;;;13.52;11.00;;;13.00;99.90;;;;;;5031023;28;20128;-75
2022/06/17 00:53:20;;;;;;;12.88;11.48;;;13.00;99.90;;;;;;5035137;28;20061;-76
2022/06/17 00:56:03;;;;;;;15.50;12.85;;;13.00;99.90;;;;;;5053651;28;20475;-75
2022/06/17 00:58:50;;;;;;;19.98;15.65;;;13.00;99.90;;;;;;5053658;28;20033;-75
2022/06/17 01:01:16;;;;;;;18.17;14.93;;;13.00;99.90;;;;;;5035478;28;20079;-73
2022/06/17 01:03:43;;;;;;;20.67;16.27;;;13.10;99.90;;;;;;5053512;28;20100;-74
2022/06/17 01:06:12;;;;;;;23.02;17.30;;;13.10;99.90;;;;;;5035168;28;20045;-75
2022/06/17 01:11:32;;;;;;;19.05;14.68;;;13.10;99.90;;;;;;5053445;28;20044;-75
2022/06/17 01:14:00;;;;;;;23.67;16.75;;;13.10;99.90;;;;;;5053440;28;20021;-74
2022/06/17 01:16:30;;;;;;;21.25;16.17;;;13.10;99.90;;;;;;5053344;28;20096;-73
2022/06/17 01:19:01;;;;;;;17.77;14.35;;;13.00;99.90;;;;;;5049162;28;20027;-73
2022/06/17 01:21:40;;;;;;;18.48;14.75;;;13.00;99.90;;;;;;5068630;28;20029;-73
2022/06/17 01:24:08;;;;;;;18.63;15.65;;;12.90;99.90;;;;;;5035315;28;20017;-75
2022/06/17 01:26:34;;;;;;;19.73;15.95;;;12.90;99.90;;;;;;5053201;28;20029;-75
2022/06/17 01:29:00;;;;;;;20.25;14.68;;;12.90;99.90;;;;;;5053217;28;20052;-73
2022/06/17 01:31:26;;;;;;;18.10;13.68;;;12.90;99.90;;;;;;5053280;28;20025;-74
2022/06/17 01:33:53;;;;;;;15.18;12.77;;;12.70;99.90;;;;;;5053230;28;20021;-75
2022/06/17 01:36:27;;;;;;;15.60;13.38;;;12.70;99.90;;;;;;5035110;28;20028;-75
2022/06/17 01:38:56;;;;;;;19.85;14.30;;;12.70;99.90;;;;;;5035239;28;20021;-73
2022/06/17 01:41:31;;;;;;;16.75;12.32;;;12.70;99.90;;;;;;5035183;28;20120;-74
2022/06/17 01:44:05;;;;;;;20.25;14.43;;;12.70;99.90;;;;;;5035217;28;20017;-73
2022/06/17 01:46:43;;;;;;;21.63;13.25;;;12.70;99.90;;;;;;5053050;28;20037;-73
2022/06/17 01:49:16;;;;;;;19.00;12.32;;;12.70;99.90;;;;;;5053155;28;20017;-73
2022/06/17 01:51:48;;;;;;;18.10;12.20;;;12.70;99.90;;;;;;5052911;28;20029;-75
2022/06/17 01:54:36;;;;;;;30.88;16.63;;;12.70;99.90;;;;;;5035135;28;20017;-73
2022/06/17 01:57:05;;;;;;;17.05;12.30;;;12.70;99.90;;;;;;5052775;28;20484;-73
2022/06/17 01:59:42;;;;;;;22.33;14.07;;;12.60;99.90;;;;;;5052791;28;20017;-75
2022/06/17 02:02:10;;;;;;;18.95;13.48;;;12.80;99.90;;;;;;5034888;28;20539;-73
2022/06/17 02:04:41;;;;;;;18.85;14.18;;;12.80;99.90;;;;;;5035685;28;20405;-76
2022/06/17 02:07:17;;;;;;;19.13;14.20;;;12.90;99.90;;;;;;5038750;28;20029;-75
2022/06/17 02:09:44;;;;;;;18.25;13.82;;;13.00;99.90;;;;;;5038826;28;20024;-73
2022/06/17 02:12:11;;;;;;;17.33;13.30;;;13.10;99.90;;;;;;5056761;28;20052;-74
2022/06/17 02:14:37;;;;;;;15.63;13.95;;;13.20;99.90;;;;;;5056782;28;20032;-73
2022/06/17 02:17:04;;;;;;;19.23;14.93;;;13.30;99.90;;;;;;5038800;28;20021;-76
2022/06/17 02:19:34;;;;;;;17.58;13.38;;;13.40;99.90;;;;;;5075365;28;20028;-75
2022/06/17 02:22:04;;;;;;;19.33;14.95;;;13.50;99.90;;;;;;5076552;28;20025;-75
2022/06/17 02:24:30;;;;;;;22.48;14.63;;;13.50;99.90;;;;;;5076584;28;20020;-76
2022/06/17 02:27:00;;;;;;;19.70;14.73;;;13.50;99.90;;;;;;5076497;28;20037;-74
2022/06/17 02:29:28;;;;;;;19.77;14.30;;;13.50;99.90;;;;;;5076609;28;20028;-73
2022/06/17 02:31:55;;;;;;;33.78;19.88;;;13.40;99.90;;;;;;5076404;28;20021;-75
2022/06/17 02:34:21;;;;;;;46.03;24.95;;;13.40;99.90;;;;;;5058151;28;20028;-74
2022/06/17 02:37:06;;;;;;;34.53;20.83;;;13.30;99.90;;;;;;5076155;28;20056;-73
2022/06/17 02:39:41;;;;;;;16.23;13.05;;;13.30;99.90;;;;;;5076305;28;20025;-73
2022/06/17 02:42:23;;;;;;;27.52;17.73;;;13.20;99.90;;;;;;5076271;28;20024;-75
2022/06/17 02:45:00;;;;;;;30.63;19.20;;;13.20;99.90;;;;;;5076125;28;20024;-73
2022/06/17 02:47:26;;;;;;;18.83;15.05;;;13.20;99.90;;;;;;5076085;28;20032;-73
2022/06/17 02:49:53;;;;;;;21.15;15.90;;;13.20;99.90;;;;;;5058198;28;20044;-73
2022/06/17 02:52:24;;;;;;;26.63;19.23;;;13.20;99.90;;;;;;5075926;28;20032;-76
2022/06/17 02:54:56;;;;;;;28.98;18.60;;;13.30;99.90;;;;;;5075968;28;20481;-76
2022/06/17 02:57:27;;;;;;;33.20;21.03;;;13.30;99.90;;;;;;5075950;28;20032;-75
2022/06/17 02:59:59;;;;;;;23.88;18.48;;;13.40;99.90;;;;;;5075681;28;20024;-75
2022/06/17 03:02:32;;;;;;;27.38;21.10;;;13.40;99.90;;;;;;5075759;28;20063;-74
2022/06/17 03:04:59;;;;;;;22.45;17.27;;;13.50;99.90;;;;;;5075770;28;20068;-74
2022/06/17 03:07:29;;;;;;;26.17;18.58;;;13.60;99.90;;;;;;5075690;28;20124;-74
2022/06/17 03:09:55;;;;;;;24.55;18.88;;;13.60;99.90;;;;;;5075704;28;20021;-75
2022/06/17 03:12:24;;;;;;;27.23;19.70;;;13.60;99.90;;;;;;5057592;28;20547;-73
2022/06/17 03:14:55;;;;;;;26.95;18.02;;;13.60;99.90;;;;;;5075801;28;20029;-74
2022/06/17 03:17:24;;;;;;;20.88;18.25;;;13.70;99.90;;;;;;5073729;28;20032;-73
2022/06/17 03:19:52;;;;;;;21.42;17.42;;;13.80;99.90;;;;;;5055320;28;20155;-73
2022/06/17 03:22:18;;;;;;;20.02;16.42;;;13.80;99.90;;;;;;5067690;28;20039;-74
2022/06/17 03:25:02;;;;;;;19.80;16.90;;;13.90;99.90;;;;;;5075475;28;20089;-74
2022/06/17 03:27:34;;;;;;;19.83;16.30;;;13.90;99.90;;;;;;5057394;28;20044;-75
2022/06/17 03:30:02;;;;;;;24.77;18.67;;;14.00;99.90;;;;;;5057527;28;20039;-75
2022/06/17 03:32:33;;;;;;;22.73;18.75;;;14.00;99.90;;;;;;5075479;28;20024;-74
2022/06/17 03:34:59;;;;;;;24.17;18.13;;;14.10;99.90;;;;;;5057289;28;20054;-75
2022/06/17 03:37:54;;;;;;;23.85;18.92;;;14.20;99.90;;;;;;5075111;28;20024;-74
2022/06/17 03:40:27;;;;;;;19.00;16.38;;;14.40;99.90;;;;;;5074318;28;20040;-74
2022/06/17 03:43:05;;;;;;;18.60;16.00;;;14.50;99.90;;;;;;5057116;28;20027;-75
2022/06/17 03:45:57;;;;;;;18.27;15.18;;;14.60;99.90;;;;;;5057016;28;20050;-75
2022/06/17 03:48:34;;;;;;;22.75;15.93;;;14.70;99.90;;;;;;5074898;28;20013;-73
2022/06/17 03:51:00;;;;;;;19.35;15.38;;;14.80;99.90;;;;;;5075069;28;20021;-74
2022/06/17 03:53:32;;;;;;;17.63;14.77;;;14.80;99.90;;;;;;5074910;28;20029;-74
2022/06/17 03:56:04;;;;;;;20.30;15.53;;;15.00;99.90;;;;;;5057032;28;20024;-73
2022/06/17 03:58:31;;;;;;;;;;;15.10;99.90;;;;;;5057173;28;20277;-75
2022/06/17 04:01:08;;;;;;;15.32;13.38;;;15.00;99.90;;;;;;5074763;28;19905;-73
2022/06/17 04:03:37;;;;;;;16.80;12.98;;;15.00;99.90;;;;;;5074827;28;20025;-74
2022/06/17 04:06:12;;;;;;;15.70;13.13;;;15.00;99.90;;;;;;5074314;28;20052;-75
2022/06/17 04:09:02;;;;;;;14.02;12.63;;;15.00;99.90;;;;;;5056498;28;20474;-73
2022/06/17 04:11:33;;;;;;;13.30;12.00;;;15.00;99.90;;;;;;5074667;28;20111;-73
2022/06/17 04:14:03;;;;;;;13.70;12.10;;;14.90;99.90;;;;;;5074332;28;20016;-73
2022/06/17 04:16:44;;;;;;;14.80;12.40;;;14.90;99.90;;;;;;5055895;28;20021;-76
2022/06/17 04:19:19;;;;;;;15.85;12.73;;;14.90;99.90;;;;;;5039471;28;20120;-76
2022/06/17 04:21:45;;;;;;;15.05;13.30;;;15.20;99.90;;;;;;5044257;28;20024;-75
2022/06/17 04:24:20;;;;;;;15.25;13.27;;;15.50;99.90;;;;;;5073967;28;20028;-76
2022/06/17 04:26:51;;;;;;;17.80;14.95;;;15.80;99.90;;;;;;5074060;28;20032;-76
2022/06/17 04:29:26;;;;;;;21.15;15.57;;;15.80;99.90;;;;;;5073801;28;20446;-73
2022/06/17 04:32:09;;;;;;;21.23;15.48;;;15.90;99.90;;;;;;5073984;28;20100;-75
2022/06/17 04:34:35;;;;;;;18.17;14.80;;;16.00;99.90;;;;;;5055706;28;20024;-73
2022/06/17 04:37:06;;;;;;;16.15;14.52;;;16.30;99.90;;;;;;5073697;28;20082;-74
2022/06/17 04:39:44;;;;;;;17.00;14.68;;;16.40;99.90;;;;;;5073763;28;20035;-74
2022/06/17 04:42:25;;;;;;;15.55;13.95;;;16.40;99.90;;;;;;5073761;28;20052;-75
2022/06/17 04:44:51;;;;;;;19.17;14.45;;;16.50;99.90;;;;;;5073381;28;20644;-74
2022/06/17 04:47:20;;;;;;;15.35;13.50;;;16.60;99.90;;;;;;5073608;28;20033;-75
2022/06/17 04:49:55;;;;;;;15.15;13.23;;;16.60;99.90;;;;;;5055484;28;20045;-75
2022/06/17 04:52:29;;;;;;;16.85;14.52;;;16.70;99.90;;;;;;5055702;28;20486;-75
2022/06/17 04:54:57;;;;;;;18.88;16.33;;;16.60;99.90;;;;;;5055494;28;20040;-76
2022/06/17 04:57:23;;;;;;;19.98;16.30;;;16.50;99.90;;;;;;5073446;28;20025;-74
2022/06/17 04:59:49;;;;;;;20.02;17.17;;;16.40;99.90;;;;;;5073175;28;20024;-73
2022/06/17 05:02:21;;;;;;;19.95;15.95;;;16.20;99.90;;;;;;5055440;28;20509;-75
2022/06/17 05:04:49;;;;;;;19.92;17.58;;;16.20;99.90;;;;;;5054979;28;20028;-74
2022/06/17 05:07:15;;;;;;;19.33;17.23;;;16.00;99.90;;;;;;5067733;28;20107;-77
2022/06/17 05:09:45;;;;;;;23.92;18.10;;;16.00;99.90;;;;;;5063677;28;20020;-74
2022/06/17 05:12:27;;;;;;;24.30;18.83;;;16.00;99.90;;;;;;5071682;28;20377;-74
2022/06/17 05:14:59;;;;;;;23.13;20.42;;;15.90;99.90;;;;;;5052068;28;20496;-74
2022/06/17 05:17:25;;;;;;;25.10;19.02;;;15.80;99.90;;;;;;5062155;28;20029;-74
2022/06/17 05:19:53;;;;;;;23.95;18.75;;;15.70;99.90;;;;;;5055562;28;20109;-74
2022/06/17 05:22:45;;;;;;;23.65;19.20;;;15.60;99.90;;;;;;5063054;28;20025;-74
2022/06/17 05:25:18;;;;;;;25.70;19.00;;;15.60;99.90;;;;;;5065468;28;20029;-74
2022/06/17 05:27:44;;;;;;;26.00;19.98;;;15.70;99.90;;;;;;5057702;28;20155;-75
2022/06/17 05:30:11;;;;;;;26.48;19.85;;;15.70;99.90;;;;;;5064972;28;20443;-73
2022/06/17 05:32:41;;;;;;;23.50;19.00;;;15.70;99.90;;;;;;5053834;28;20082;-73
2022/06/17 05:35:10;;;;;;;31.13;20.52;;;15.60;99.90;;;;;;5052321;28;20467;-79
2022/06/17 05:37:36;;;;;;;27.23;20.20;;;15.50;99.90;;;;;;5050041;28;20017;-75
2022/06/17 05:40:03;;;;;;;31.85;22.33;;;15.50;99.90;;;;;;5071481;28;20043;-73
2022/06/17 05:42:29;;;;;;;25.15;20.80;;;15.40;99.90;;;;;;5053935;28;20131;-76
2022/06/17 05:44:55;;;;;;;29.15;23.08;;;15.40;99.90;;;;;;5071812;28;20044;-76
2022/06/17 05:47:21;;;;;;;28.25;22.60;;;15.30;99.90;;;;;;5071568;28;20045;-73
2022/06/17 05:49:46;;;;;;;32.15;22.45;;;15.30;99.90;;;;;;5073349;28;20092;-75
2022/06/17 05:52:12;;;;;;;34.97;22.70;;;15.20;99.90;;;;;;5053238;28;20035;-76
2022/06/17 05:54:38;;;;;;;34.88;25.33;;;15.20;99.90;;;;;;5053861;28;20029;-74
2022/06/17 05:57:04;;;;;;;34.53;23.67;;;15.10;99.90;;;;;;5072193;28;20126;-73
2022/06/17 05:59:30;;;;;;;37.90;25.80;;;14.80;99.90;;;;;;5052275;28;20497;-73
2022/06/17 06:01:55;;;;;;;36.90;25.65;;;14.80;99.90;;;;;;5071838;28;20045;-73
2022/06/17 06:04:21;;;;;;;40.45;27.95;;;14.70;99.90;;;;;;5052946;28;20409;-76
2022/06/17 06:06:48;;;;;;;41.97;26.67;;;14.70;99.90;;;;;;5052976;28;20053;-75
2022/06/17 06:09:14;;;;;;;42.90;29.30;;;14.80;99.90;;;;;;5071053;28;20036;-75
2022/06/17 06:11:40;;;;;;;40.78;26.98;;;14.90;99.90;;;;;;5071678;28;20024;-75
2022/06/17 06:14:05;;;;;;;49.72;28.08;;;14.90;99.90;;;;;;5071472;28;20087;-75
2022/06/17 06:16:31;;;;;;;46.00;29.63;;;14.80;99.90;;;;;;5053336;28;20463;-75
2022/06/17 06:18:57;;;;;;;47.17;30.98;;;14.60;99.90;;;;;;5071261;28;20040;-75
2022/06/17 06:21:23;;;;;;;46.38;29.02;;;14.60;99.90;;;;;;5065034;28;20025;-75
2022/06/17 06:23:49;;;;;;;48.75;32.38;;;14.60;99.90;;;;;;5050507;28;20044;-75
2022/06/17 06:26:17;;;;;;;53.15;31.33;;;14.50;99.90;;;;;;5071147;28;20398;-75
2022/06/17 06:28:44;;;;;;;51.50;32.75;;;14.50;99.90;;;;;;5071280;28;20402;-75
2022/06/17 06:31:32;;;;;;;50.95;31.80;;;14.50;99.90;;;;;;5071335;28;20062;-75
2022/06/17 06:33:57;;;;;;;52.50;30.60;;;14.60;99.90;;;;;;5071244;28;20107;-76
2022/06/17 06:36:24;;;;;;;49.65;31.60;;;14.60;99.90;;;;;;5052521;28;20451;-76
2022/06/17 06:38:49;;;;;;;51.45;31.35;;;14.70;99.90;;;;;;5071183;28;20104;-76
2022/06/17 06:41:17;;;;;;;49.30;30.58;;;14.70;99.90;;;;;;5053055;28;20017;-75
2022/06/17 06:43:44;;;;;;;45.28;28.55;;;14.60;99.90;;;;;;5071070;28;20528;-75
2022/06/17 06:46:12;;;;;;;47.60;31.00;;;14.70;99.90;;;;;;5053152;28;20024;-75
2022/06/17 06:48:39;;;;;;;45.88;28.92;;;14.80;99.90;;;;;;5071543;28;20025;-75
2022/06/17 06:51:05;;;;;;;50.33;29.27;;;14.80;99.90;;;;;;5071922;28;20028;-76
2022/06/17 06:53:31;;;;;;;52.22;30.50;;;14.90;99.90;;;;;;5057671;28;20008;-75
2022/06/17 06:55:56;;;;;;;42.97;28.30;;;15.00;99.90;;;;;;5075414;28;20028;-76
2022/06/17 06:58:24;;;;;;;47.45;30.00;;;15.10;99.90;;;;;;5075712;28;20074;-76
2022/06/17 07:00:56;;;;;;;42.33;28.27;;;15.40;99.90;;;;;;5057338;28;20028;-75
2022/06/17 07:03:23;;;;;;;40.38;27.77;;;15.50;99.90;;;;;;5075487;28;20034;-76
2022/06/17 07:05:52;;;;;;;43.90;29.08;;;15.90;99.90;;;;;;5074920;28;20076;-75
2022/06/17 07:08:20;;;;;;;41.70;27.80;;;16.10;99.90;;;;;;5054783;28;20039;-76
2022/06/17 07:10:49;;;;;;;35.35;25.50;;;16.20;99.90;;;;;;5075113;28;20446;-76
2022/06/17 07:13:15;;;;;;;40.85;24.13;;;16.40;99.90;;;;;;5075093;28;20095;-75
2022/06/17 07:15:43;;;;;;;31.25;21.80;;;16.50;99.90;;;;;;5056903;28;20116;-73
2022/06/17 07:18:22;;;;;;;35.10;22.55;;;16.60;99.90;;;;;;5065907;28;20023;-73
2022/06/17 07:20:51;;;;;;;33.63;22.95;;;16.70;99.90;;;;;;5055979;28;20422;-73
2022/06/17 07:23:20;;;;;;;28.95;20.85;;;16.90;99.90;;;;;;5074994;28;20047;-73
2022/06/17 07:25:46;;;;;;;27.88;19.05;;;16.80;99.90;;;;;;5056618;28;20051;-73
2022/06/17 07:28:14;;;;;;;29.77;18.63;;;16.90;99.90;;;;;;5056743;28;20210;-73
2022/06/17 07:30:40;;;;;;;27.38;19.00;;;17.10;99.90;;;;;;5056674;28;20021;-74
2022/06/17 07:33:06;;;;;;;23.48;18.55;;;17.30;99.90;;;;;;5074911;28;20035;-73
2022/06/17 07:35:31;;;;;;;16.88;14.10;;;17.30;99.90;;;;;;5074591;28;20032;-73
2022/06/17 07:40:47;;;;;;;12.00;9.52;;;17.90;99.90;;;;;;5054592;28;20044;-73
2022/06/17 07:43:18;;;;;;;12.70;7.75;;;17.50;99.90;;;;;;5054813;28;20021;-73
2022/06/17 07:45:44;;;;;;;6.72;6.03;;;17.30;98.00;;;;;;5036465;28;20394;-73
2022/06/17 07:48:14;;;;;;;7.47;5.30;;;17.40;95.50;;;;;;5054488;28;20048;-73
2022/06/17 07:50:44;;;;;;;8.40;5.07;;;17.70;93.50;;;;;;5036474;28;20106;-73
2022/06/17 07:53:10;;;;;;;4.72;4.32;;;18.20;86.20;;;;;;5036578;28;20021;-73
2022/06/17 07:55:36;;;;;;;5.90;4.63;;;18.50;85.80;;;;;;5054187;28;20013;-73
2022/06/17 07:58:03;;;;;;;10.00;5.07;;;18.60;84.80;;;;;;5035674;28;20021;-74
2022/06/17 08:00:35;;;;;;;4.80;4.40;;;18.50;83.60;;;;;;5054249;28;20561;-74
2022/06/17 08:03:01;;;;;;;9.20;5.80;;;18.40;82.50;;;;;;5036096;28;20489;-73
2022/06/17 08:05:27;;;;;;;7.53;4.60;;;18.30;86.00;;;;;;5053725;28;20299;-73
2022/06/17 08:07:54;;;;;;;6.97;4.60;;;18.30;85.90;;;;;;5054066;28;20044;-74
2022/06/17 08:10:26;;;;;;;6.05;5.10;;;18.20;83.70;;;;;;5054245;28;20025;-73
2022/06/17 08:12:52;;;;;;;6.38;5.78;;;18.10;86.70;;;;;;5054191;28;20386;-74
2022/06/17 08:15:18;;;;;;;6.25;4.85;;;18.30;85.20;;;;;;5054045;28;20029;-73
2022/06/17 08:17:45;;;;;;;8.27;4.70;;;18.60;87.10;;;;;;5041959;28;20104;-74
2022/06/17 08:20:21;;;;;;;5.72;4.20;;;18.60;80.70;;;;;;5074045;28;20092;-74
2022/06/17 08:22:48;;;;;;;8.18;4.65;;;18.90;79.00;;;;;;5038146;28;20482;-74
2022/06/17 08:25:14;;;;;;;4.93;4.40;;;18.70;78.10;;;;;;5053854;28;20052;-71
2022/06/17 08:27:51;;;;;;;6.18;4.05;;;18.80;78.20;;;;;;5035787;28;20048;-71
2022/06/17 08:30:20;;;;;;;5.45;3.95;;;18.70;75.30;;;;;;5036004;28;20035;-71
2022/06/17 08:32:46;;;;;;;6.45;4.00;;;18.80;78.30;;;;;;5053749;28;20024;-71
2022/06/17 08:35:18;;;;;;;5.45;4.85;;;18.50;80.60;;;;;;5053716;28;20037;-72
2022/06/17 08:37:45;;;;;;;5.28;4.78;;;18.60;80.30;;;;;;5053582;28;20017;-72
2022/06/17 08:40:38;;;;;;;7.70;3.70;;;18.60;79.30;;;;;;5035789;28;20017;-74
2022/06/17 08:43:33;;;;;;;5.68;4.85;;;18.90;76.50;;;;;;5053671;28;20107;-74
2022/06/17 08:46:13;;;;;;;5.78;3.70;;;18.80;78.30;;;;;;5044511;28;20123;-74
2022/06/17 08:48:44;;;;;;;6.45;3.80;;;18.70;78.30;;;;;;5053562;28;20068;-74
2022/06/17 08:51:37;;;;;;;3.90;3.07;;;18.90;76.60;;;;;;5056499;28;20040;-73
2022/06/17 08:54:29;;;;;;;2.40;2.20;;;18.80;69.40;;;;;;5066470;28;20028;-73
2022/06/17 08:57:00;;;;;;;3.13;2.83;;;19.30;66.00;;;;;;5061619;28;20032;-72
2022/06/17 09:00:05;;;;;;;3.53;2.75;;;19.30;68.60;;;;;;5072182;28;20017;-73
2022/06/17 09:02:52;;;;;;;5.95;3.70;;;19.10;69.20;;;;;;5059804;28;20089;-72
2022/06/17 09:05:27;;;;;;;6.50;3.60;;;18.70;72.70;;;;;;5072010;28;20080;-71
2022/06/17 09:08:07;;;;;;;8.27;4.38;;;18.60;74.10;;;;;;5053856;28;20046;-71
2022/06/17 09:11:00;;;;;;;4.32;3.90;;;18.90;71.00;;;;;;5072046;28;20029;-71
2022/06/17 09:13:38;;;;;;;6.28;3.75;;;19.10;72.50;;;;;;5066247;28;20046;-71
2022/06/17 09:16:41;;;;;;;5.30;3.80;;;19.30;72.30;;;;;;5034673;28;20048;-71
2022/06/17 09:19:08;;;;;;;5.00;4.50;;;19.40;73.10;;;;;;5070466;28;20028;-71
2022/06/17 09:21:49;;;;;;;4.75;3.78;;;19.20;70.70;;;;;;5045727;28;20115;-72
2022/06/17 09:24:30;;;;;;;4.90;4.43;;;19.60;70.60;;;;;;5034449;28;20021;-71
2022/06/17 09:27:05;;;;;;;5.07;4.68;;;19.60;68.40;;;;;;5052852;28;20123;-74
2022/06/17 09:29:41;;;;;;;5.63;5.10;;;19.60;71.30;;;;;;5035142;28;20405;-72
2022/06/17 09:32:29;;;;;;;8.27;4.13;;;19.50;69.30;;;;;;5051303;28;20495;-75
2022/06/17 09:35:17;;;;;;;8.05;5.90;;;19.50;68.40;;;;;;5032837;28;20017;-74
2022/06/17 09:37:57;;;;;;;5.63;5.07;;;19.80;67.40;;;;;;5051017;28;20615;-72
2022/06/17 09:40:22;;;;;;;5.38;4.97;;;19.60;69.10;;;;;;5051035;28;20043;-74
2022/06/17 09:42:58;;;;;;;6.47;5.97;;;19.00;73.00;;;;;;5033204;28;20467;-74
2022/06/17 09:45:50;;;;;;;6.82;6.15;;;19.20;71.60;;;;;;5033631;28;20425;-74
2022/06/17 09:48:53;;;;;;;6.40;4.90;;;19.30;72.20;;;;;;5035065;28;20025;-73
2022/06/17 09:51:34;;;;;;;8.13;5.38;;;19.30;72.70;;;;;;5052973;28;20549;-71
2022/06/17 09:54:18;;;;;;;7.45;5.15;;;19.00;71.40;;;;;;5053024;28;20079;-74
2022/06/17 09:56:44;;;;;;;5.35;4.85;;;19.00;69.50;;;;;;5052948;28;20100;-71
2022/06/17 09:59:18;;;;;;;7.50;5.82;;;19.30;75.10;;;;;;5035016;28;20064;-71
2022/06/17 10:01:46;;;;;;;5.40;5.00;;;19.10;72.00;;;;;;5052910;28;20037;-74
2022/06/17 10:04:13;;;;;;;5.47;4.68;;;19.10;70.10;;;;;;5052656;28;20028;-72
2022/06/17 10:07:04;;;;;;;5.35;4.70;;;19.50;68.30;;;;;;5052826;28;20128;-73
2022/06/17 10:10:06;;;;;;;5.47;4.97;;;19.80;67.70;;;;;;5052764;28;20031;-72
2022/06/17 10:12:58;;;;;;;5.00;4.40;;;19.90;67.00;;;;;;5034866;28;20033;-71
2022/06/17 10:19:21;;;;;;;5.43;4.55;;;19.60;67.50;;;;;;5068839;28;20501;-74
2022/06/17 10:22:05;;;;;;;5.10;4.70;;;20.00;68.00;;;;;;5072878;28;20028;-71
2022/06/17 10:24:59;;;;;;;5.65;4.72;;;20.20;63.40;;;;;;5072466;28;20032;-74
2022/06/17 10:27:37;;;;;;;10.52;4.15;;;20.50;64.20;;;;;;5076605;28;20032;-74
2022/06/17 10:30:08;;;;;;;4.22;3.67;;;20.00;61.00;;;;;;5076277;28;20032;-75
2022/06/17 10:32:38;;;;;;;4.22;3.83;;;19.60;62.80;;;;;;5076427;28;20031;-72
2022/06/17 10:35:12;;;;;;;5.53;4.15;;;19.30;61.30;;;;;;5076256;28;20017;-72
2022/06/17 10:37:38;;;;;;;4.07;3.72;;;19.40;64.30;;;;;;5076126;28;20055;-72
2022/06/17 10:40:07;;;;;;;4.38;3.28;;;19.70;63.20;;;;;;5058213;28;20048;-74
2022/06/17 10:42:33;;;;;;;4.57;4.18;;;20.10;61.20;;;;;;5058222;28;20528;-72
2022/06/17 10:45:01;;;;;;;6.95;3.15;;;20.20;59.50;;;;;;5075986;28;20025;-74
2022/06/17 10:47:53;;;;;;;3.85;3.47;;;20.20;58.80;;;;;;5075115;28;20036;-72
2022/06/17 10:50:27;;;;;;;3.63;3.33;;;20.40;59.20;;;;;;5070613;28;20063;-72
2022/06/17 10:53:05;;;;;;;4.60;3.15;;;20.50;59.30;;;;;;5075908;28;20498;-72
2022/06/17 10:55:39;;;;;;;3.65;3.33;;;20.70;59.60;;;;;;5058005;28;20024;-74
2022/06/17 10:58:20;;;;;;;3.55;2.78;;;20.90;59.60;;;;;;5076063;28;20025;-74
2022/06/17 11:00:55;;;;;;;3.33;2.90;;;20.60;58.70;;;;;;5076115;28;20086;-74
2022/06/17 11:03:35;;;;;;;3.42;2.78;;;20.60;58.60;;;;;;5057761;28;20033;-74
2022/06/17 11:06:00;;;;;;;3.83;2.63;;;20.70;57.40;;;;;;5075485;28;20044;-75
2022/06/17 11:08:56;;;;;;;4.68;2.75;;;21.00;58.70;;;;;;5075416;28;20020;-73
2022/06/17 11:12:04;;;;;;;4.35;2.80;;;20.70;61.40;;;;;;5070509;28;20033;-74
2022/06/17 11:14:52;;;;;;;6.22;2.83;;;20.80;61.60;;;;;;5076031;28;20118;-73
2022/06/17 11:17:30;;;;;;;3.42;2.92;;;20.80;60.70;;;;;;5072236;28;20017;-72
2022/06/17 11:20:01;;;;;;;2.42;2.00;;;21.00;60.50;;;;;;5037678;28;20494;-73
2022/06/17 11:22:32;;;;;;;2.40;1.70;;;20.90;56.30;;;;;;5071816;28;20023;-72
2022/06/17 11:25:19;;;;;;;2.67;2.30;;;20.90;57.00;;;;;;5075670;28;20367;-72
2022/06/17 11:27:55;;;;;;;3.20;2.15;;;20.60;58.50;;;;;;5075630;28;20505;-72
2022/06/17 11:30:30;;;;;;;5.13;2.20;;;20.60;58.30;;;;;;5075592;28;20528;-74
2022/06/17 11:32:58;;;;;;;2.28;2.08;;;20.70;57.60;;;;;;5057598;28;20025;-74
2022/06/17 11:35:29;;;;;;;1.63;1.52;;;20.80;58.90;;;;;;5057360;28;20517;-72
2022/06/17 11:37:56;;;;;;;2.00;1.45;;;21.10;59.30;;;;;;5074819;28;20478;-75
2022/06/17 11:40:24;;;;;;;5.68;1.42;;;21.10;55.90;;;;;;5075211;28;20020;-72
2022/06/17 11:43:01;;;;;;;1.40;1.27;;;21.50;57.20;;;;;;5057451;28;20048;-72
2022/06/17 11:45:40;;;;;;;1.40;1.30;;;21.70;55.90;;;;;;5057028;28;20058;-74
2022/06/17 11:48:11;;;;;;;0.95;0.95;;;21.60;53.80;;;;;;5075370;28;20028;-72
2022/06/17 11:50:40;;;;;;;1.40;1.10;;;21.70;54.40;;;;;;5075138;28;20020;-72
2022/06/17 11:53:16;;;;;;;1.92;0.90;;;21.80;54.10;;;;;;5075318;28;20024;-72
2022/06/17 11:55:48;;;;;;;1.40;0.70;;;22.00;53.20;;;;;;5075150;28;20024;-74
2022/06/17 11:58:17;;;;;;;0.93;0.68;;;21.70;52.60;;;;;;5057184;28;20107;-74
2022/06/17 12:00:53;;;;;;;0.90;0.90;;;21.40;52.80;;;;;;5074858;28;20055;-74
2022/06/17 12:03:40;;;;;;;1.15;0.68;;;21.30;51.70;;;;;;5074739;28;20035;-72
2022/06/17 12:06:22;;;;;;;2.72;0.93;;;21.40;51.30;;;;;;5055854;28;20044;-74
2022/06/17 12:09:12;;;;;;;2.72;0.90;;;21.60;51.20;;;;;;5074976;28;20056;-74
2022/06/17 12:11:52;;;;;;;4.00;0.73;;;21.50;50.90;;;;;;5056786;28;20021;-74
2022/06/17 12:14:26;;;;;;;2.80;0.82;;;21.60;50.30;;;;;;5074609;28;20027;-72
2022/06/17 12:16:52;;;;;;;1.83;0.60;;;21.40;51.00;;;;;;5074629;28;20028;-72
2022/06/17 12:19:21;;;;;;;0.40;0.40;;;21.50;50.30;;;;;;5054695;28;20074;-72
2022/06/17 12:21:56;;;;;;;1.00;0.50;;;21.20;49.10;;;;;;5065465;28;20029;-72
2022/06/17 12:24:36;;;;;;;2.05;0.70;;;21.00;48.00;;;;;;5074624;28;20107;-74
2022/06/17 12:27:14;;;;;;;0.75;0.70;;;20.50;49.10;;;;;;5074592;28;20044;-72
2022/06/17 12:30:29;;;;;;;0.65;0.65;;;20.20;51.40;;;;;;5074309;28;20028;-74
2022/06/17 12:33:05;;;;;;;2.33;1.00;;;20.20;53.10;;;;;;4993055;28;20531;-74
2022/06/17 12:35:42;;;;;;;1.80;0.85;;;20.30;53.60;;;;;;4993026;28;20030;-74
2022/06/17 12:38:19;;;;;;;1.58;0.98;;;20.60;52.00;;;;;;5042587;28;20033;-74
2022/06/17 12:40:49;;;;;;;2.63;0.85;;;20.80;53.20;;;;;;5056303;28;20024;-73
2022/06/17 12:43:33;;;;;;;1.90;0.80;;;21.40;53.20;;;;;;5056295;28;20123;-73
2022/06/17 12:46:08;;;;;;;3.67;1.23;;;21.30;52.80;;;;;;5074019;28;20504;-72
2022/06/17 12:53:13;;;;;;;0.73;0.70;;;21.50;53.60;;;;;;5073737;28;20021;-72
2022/06/17 12:55:01;;;;;;;3.70;0.88;;;21.50;52.30;;;;;;5074028;28;20393;-74
2022/06/17 12:58:02;;;;;;;2.08;1.10;;;21.30;53.40;;;;;;5074080;28;20027;-72
2022/06/17 13:00:44;;;;;;;1.42;0.90;;;21.00;54.20;;;;;;5048208;28;20029;-74
2022/06/17 13:03:30;;;;;;;2.70;2.20;;;21.40;55.80;;;;;;5073948;28;20056;-74
2022/06/17 13:06:02;;;;;;;1.27;1.17;;;21.70;54.70;;;;;;5052206;28;20047;-73
2022/06/17 13:08:49;;;;;;;3.97;1.35;;;21.60;53.20;;;;;;5053936;28;20360;-72
2022/06/17 13:11:21;;;;;;;1.27;0.93;;;21.40;54.50;;;;;;5053666;28;20049;-74
2022/06/17 13:14:06;;;;;;;4.43;1.63;;;21.10;54.30;;;;;;5052517;28;20062;-74
2022/06/17 13:16:58;;;;;;;2.28;1.25;;;20.90;54.30;;;;;;5053607;28;20025;-74
2022/06/17 13:19:42;;;;;;;3.55;1.30;;;20.60;55.70;;;;;;5049376;28;20471;-72